createdAt,value
2017-08-12T00:00:30.343Z,14.39
2017-08-12T00:01:30.342Z,14.43
2017-08-12T00:02:30.345Z,14.42
2017-08-12T00:03:30.359Z,14.37
2017-08-12T00:04:30.352Z,14.36
2017-08-12T00:05:30.355Z,14.29
2017-08-12T00:06:30.364Z,14.26
2017-08-12T00:07:30.360Z,14.27
2017-08-12T00:08:30.362Z,14.23
2017-08-12T00:09:30.367Z,14.24
2017-08-12T00:10:30.364Z,14.29
2017-08-12T00:11:30.371Z,14.34
2017-08-12T00:12:30.376Z,14.29
2017-08-12T00:13:30.408Z,14.27
2017-08-12T00:14:30.425Z,14.22
2017-08-12T00:15:30.385Z,14.26
2017-08-12T00:16:30.401Z,14.25
2017-08-12T00:17:30.400Z,14.28
2017-08-12T00:18:34.455Z,14.27
2017-08-12T00:19:30.455Z,14.24
2017-08-12T00:20:30.399Z,14.24
2017-08-12T00:21:30.403Z,14.30
2017-08-12T00:22:30.407Z,14.28
2017-08-12T00:23:30.405Z,14.29
2017-08-12T00:24:30.406Z,14.31
2017-08-12T00:25:30.412Z,14.36
2017-08-12T00:26:30.418Z,14.31
2017-08-12T00:27:30.417Z,14.28
2017-08-12T00:28:30.428Z,14.26
2017-08-12T00:29:30.422Z,14.25
2017-08-12T00:30:30.426Z,14.26
2017-08-12T00:31:30.454Z,14.27
2017-08-12T00:32:30.432Z,14.24
2017-08-12T00:33:30.455Z,14.20
2017-08-12T00:34:30.438Z,14.16
2017-08-12T00:35:30.445Z,14.15
2017-08-12T00:36:30.444Z,14.14
2017-08-12T00:37:30.450Z,14.13
2017-08-12T00:38:30.465Z,14.13
2017-08-12T00:39:30.486Z,14.15
2017-08-12T00:40:30.458Z,14.14
2017-08-12T00:41:30.459Z,14.10
2017-08-12T00:42:30.461Z,14.10
2017-08-12T00:43:30.464Z,14.11
2017-08-12T00:44:30.477Z,14.14
2017-08-12T00:45:30.467Z,14.15
2017-08-12T00:46:30.470Z,14.18
2017-08-12T00:47:30.473Z,14.12
2017-08-12T00:48:30.478Z,14.10
2017-08-12T00:49:30.479Z,14.09
2017-08-12T00:50:30.485Z,14.07
2017-08-12T00:51:30.484Z,14.06
2017-08-12T00:52:30.488Z,14.04
2017-08-12T00:53:30.490Z,14.07
2017-08-12T00:54:30.494Z,14.05
2017-08-12T00:55:30.496Z,14.04
2017-08-12T00:56:30.501Z,14.03
2017-08-12T00:57:30.504Z,14.07
2017-08-12T00:58:30.520Z,14.08
2017-08-12T00:59:30.518Z,14.09
2017-08-12T01:02:29.962Z,14.05
2017-08-12T01:02:31.408Z,14.05
2017-08-12T01:02:32.025Z,14.03
2017-08-12T01:05:52.944Z,14.03
2017-08-12T01:05:54.402Z,14.01
2017-08-12T01:05:55.007Z,13.96
2017-08-12T01:08:46.121Z,14.00
2017-08-12T01:08:47.558Z,13.92
2017-08-12T01:08:48.162Z,13.89
2017-08-12T01:11:45.844Z,13.91
2017-08-12T01:11:46.874Z,13.94
2017-08-12T01:11:47.482Z,13.93
2017-08-12T01:15:06.124Z,13.97
2017-08-12T01:15:07.263Z,13.93
2017-08-12T01:15:07.901Z,13.95
2017-08-12T01:17:50.850Z,13.97
2017-08-12T01:17:52.349Z,14.00
2017-08-12T01:17:52.954Z,13.98
2017-08-12T01:20:30.093Z,13.96
2017-08-12T01:20:31.471Z,13.97
2017-08-12T01:20:32.082Z,14.00
2017-08-12T01:23:52.889Z,13.97
2017-08-12T01:23:54.421Z,13.95
2017-08-12T01:23:55.029Z,14.02
2017-08-12T01:27:06.117Z,14.00
2017-08-12T01:27:08.069Z,13.95
2017-08-12T01:27:08.676Z,13.91
2017-08-12T01:29:52.905Z,13.92
2017-08-12T01:29:53.943Z,13.87
2017-08-12T01:29:54.552Z,13.87
2017-08-12T01:32:30.974Z,13.90
2017-08-12T01:32:32.291Z,13.84
2017-08-12T01:32:32.901Z,13.87
2017-08-12T01:35:52.886Z,13.85
2017-08-12T01:35:54.366Z,13.83
2017-08-12T01:35:54.976Z,13.87
2017-08-12T01:38:30.931Z,13.89
2017-08-12T01:38:32.404Z,13.89
2017-08-12T01:38:33.009Z,13.89
2017-08-12T01:41:52.967Z,13.82
2017-08-12T01:41:54.629Z,13.84
2017-08-12T01:41:55.262Z,13.85
2017-08-12T01:44:40.115Z,13.84
2017-08-12T01:44:41.701Z,13.83
2017-08-12T01:44:42.311Z,13.87
2017-08-12T01:47:52.868Z,13.94
2017-08-12T01:47:54.337Z,13.93
2017-08-12T01:47:54.945Z,13.94
2017-08-12T01:50:40.115Z,13.96
2017-08-12T01:50:41.526Z,13.93
2017-08-12T01:50:42.197Z,13.89
2017-08-12T01:53:43.898Z,13.88
2017-08-12T01:53:45.292Z,13.89
2017-08-12T01:53:45.897Z,13.89
2017-08-12T01:56:40.177Z,13.90
2017-08-12T01:56:41.568Z,13.92
2017-08-12T01:56:42.179Z,13.91
2017-08-12T01:59:49.854Z,13.93
2017-08-12T01:59:51.683Z,13.89
2017-08-12T01:59:52.292Z,13.89
2017-08-12T02:00:30.685Z,13.94
2017-08-12T02:01:30.686Z,13.96
2017-08-12T02:02:30.690Z,14.00
2017-08-12T02:03:30.694Z,13.96
2017-08-12T02:04:30.695Z,13.95
2017-08-12T02:05:30.696Z,13.92
2017-08-12T02:06:30.701Z,13.89
2017-08-12T02:07:30.702Z,13.89
2017-08-12T02:08:30.706Z,13.91
2017-08-12T02:09:30.713Z,13.88
2017-08-12T02:10:30.710Z,13.87
2017-08-12T02:11:30.714Z,13.85
2017-08-12T02:12:30.714Z,13.88
2017-08-12T02:13:30.721Z,13.92
2017-08-12T02:14:30.724Z,13.92
2017-08-12T02:15:30.737Z,13.90
2017-08-12T02:16:30.733Z,13.91
2017-08-12T02:17:30.746Z,13.91
2017-08-12T02:18:30.733Z,13.88
2017-08-12T02:19:30.738Z,13.87
2017-08-12T02:20:30.741Z,13.86
2017-08-12T02:21:30.764Z,13.85
2017-08-12T02:22:30.747Z,13.85
2017-08-12T02:23:30.749Z,13.86
2017-08-12T02:24:30.753Z,13.88
2017-08-12T02:25:30.759Z,13.87
2017-08-12T02:26:30.757Z,13.92
2017-08-12T02:27:30.759Z,13.88
2017-08-12T02:28:30.763Z,13.82
2017-08-12T02:29:30.765Z,13.81
2017-08-12T02:30:30.776Z,13.85
2017-08-12T02:31:30.771Z,13.81
2017-08-12T02:32:30.779Z,13.83
2017-08-12T02:33:30.778Z,13.85
2017-08-12T02:34:30.781Z,13.81
2017-08-12T02:35:30.787Z,13.81
2017-08-12T02:36:30.791Z,13.82
2017-08-12T02:37:30.792Z,13.87
2017-08-12T02:38:30.796Z,13.87
2017-08-12T02:39:30.796Z,13.82
2017-08-12T02:40:30.799Z,13.82
2017-08-12T02:41:30.803Z,13.84
2017-08-12T02:42:30.806Z,13.84
2017-08-12T02:43:30.807Z,13.85
2017-08-12T02:44:30.808Z,13.86
2017-08-12T02:45:30.814Z,13.86
2017-08-12T02:46:30.815Z,13.88
2017-08-12T02:47:30.818Z,13.89
2017-08-12T02:48:30.822Z,13.87
2017-08-12T02:49:30.826Z,13.84
2017-08-12T02:50:30.830Z,13.83
2017-08-12T02:51:30.830Z,13.86
2017-08-12T02:52:30.833Z,13.79
2017-08-12T02:53:30.839Z,13.74
2017-08-12T02:54:30.850Z,13.73
2017-08-12T02:55:30.841Z,13.75
2017-08-12T02:56:30.847Z,13.73
2017-08-12T02:57:30.850Z,13.76
2017-08-12T02:58:30.851Z,13.82
2017-08-12T02:59:30.856Z,13.87
2017-08-12T03:00:30.854Z,13.88
2017-08-12T03:01:30.859Z,13.86
2017-08-12T03:02:30.857Z,13.85
2017-08-12T03:03:30.864Z,13.84
2017-08-12T03:04:30.865Z,13.85
2017-08-12T03:05:30.870Z,13.86
2017-08-12T03:06:30.883Z,13.87
2017-08-12T03:07:30.879Z,13.85
2017-08-12T03:08:30.880Z,13.84
2017-08-12T03:09:30.885Z,13.81
2017-08-12T03:10:30.883Z,13.80
2017-08-12T03:11:30.888Z,13.81
2017-08-12T03:12:30.893Z,13.78
2017-08-12T03:13:30.890Z,13.78
2017-08-12T03:14:48.602Z,13.78
2017-08-12T03:16:14.958Z,13.76
2017-08-12T03:16:16.676Z,13.79
2017-08-12T03:16:30.902Z,13.78
2017-08-12T03:17:30.909Z,13.78
2017-08-12T03:18:30.907Z,13.75
2017-08-12T03:19:30.912Z,13.77
2017-08-12T03:20:30.913Z,13.77
2017-08-12T03:21:30.919Z,13.74
2017-08-12T03:22:30.924Z,13.75
2017-08-12T03:23:30.924Z,13.74
2017-08-12T03:24:30.924Z,13.74
2017-08-12T03:25:30.929Z,13.72
2017-08-12T03:26:30.953Z,13.73
2017-08-12T03:27:30.937Z,13.73
2017-08-12T03:28:30.937Z,13.74
2017-08-12T03:29:30.939Z,13.75
2017-08-12T03:30:30.947Z,13.71
2017-08-12T03:31:30.955Z,13.69
2017-08-12T03:32:30.963Z,13.67
2017-08-12T03:33:30.956Z,13.68
2017-08-12T03:34:30.956Z,13.68
2017-08-12T03:35:30.958Z,13.66
2017-08-12T03:36:30.963Z,13.65
2017-08-12T03:37:30.968Z,13.58
2017-08-12T03:38:30.966Z,13.58
2017-08-12T03:39:30.969Z,13.57
2017-08-12T03:40:30.975Z,13.59
2017-08-12T03:41:31.278Z,13.58
2017-08-12T03:42:30.983Z,13.57
2017-08-12T03:43:30.991Z,13.54
2017-08-12T03:44:30.984Z,13.51
2017-08-12T03:45:30.990Z,13.49
2017-08-12T03:46:30.989Z,13.46
2017-08-12T03:47:30.998Z,13.40
2017-08-12T03:48:30.994Z,13.39
2017-08-12T03:49:30.997Z,13.43
2017-08-12T03:50:31.003Z,13.43
2017-08-12T03:51:31.007Z,13.38
2017-08-12T03:52:31.008Z,13.35
2017-08-12T03:53:31.013Z,13.42
2017-08-12T03:54:31.015Z,13.44
2017-08-12T03:55:31.071Z,13.41
2017-08-12T03:56:31.026Z,13.42
2017-08-12T03:57:31.029Z,13.43
2017-08-12T03:58:31.100Z,13.38
2017-08-12T03:59:31.028Z,13.37
2017-08-12T04:00:31.041Z,13.34
2017-08-12T04:01:31.042Z,13.34
2017-08-12T04:02:31.038Z,13.36
2017-08-12T04:03:31.057Z,13.32
2017-08-12T04:04:31.055Z,13.32
2017-08-12T04:05:31.050Z,13.31
2017-08-12T04:06:31.054Z,13.28
2017-08-12T04:07:31.050Z,13.25
2017-08-12T04:08:31.064Z,13.21
2017-08-12T04:09:31.058Z,13.20
2017-08-12T04:10:31.063Z,13.25
2017-08-12T04:11:31.066Z,13.24
2017-08-12T04:12:31.070Z,13.23
2017-08-12T04:13:31.073Z,13.19
2017-08-12T04:14:31.084Z,13.13
2017-08-12T04:15:31.075Z,13.12
2017-08-12T04:16:31.079Z,13.17
2017-08-12T04:17:31.082Z,13.17
2017-08-12T04:18:31.089Z,13.10
2017-08-12T04:19:31.092Z,13.12
2017-08-12T04:20:31.095Z,13.13
2017-08-12T04:21:31.100Z,13.16
2017-08-12T04:22:31.103Z,13.17
2017-08-12T04:23:31.101Z,13.20
2017-08-12T04:24:31.101Z,13.23
2017-08-12T04:25:31.113Z,13.23
2017-08-12T04:26:31.112Z,13.24
2017-08-12T04:27:31.114Z,13.27
2017-08-12T04:28:31.117Z,13.28
2017-08-12T04:29:31.120Z,13.34
2017-08-12T04:30:31.131Z,13.49
2017-08-12T04:31:31.128Z,13.57
2017-08-12T04:32:31.126Z,13.67
2017-08-12T04:33:31.132Z,13.71
2017-08-12T04:34:31.135Z,13.74
2017-08-12T04:35:31.135Z,13.80
2017-08-12T04:36:31.140Z,13.85
2017-08-12T04:37:31.141Z,13.89
2017-08-12T04:38:31.145Z,13.97
2017-08-12T04:39:31.152Z,14.05
2017-08-12T04:40:31.150Z,14.13
2017-08-12T04:41:31.155Z,14.15
2017-08-12T04:42:31.159Z,14.17
2017-08-12T04:43:31.168Z,14.22
2017-08-12T04:44:31.176Z,14.29
2017-08-12T04:45:31.167Z,14.34
2017-08-12T04:46:31.169Z,14.38
2017-08-12T04:47:31.183Z,14.35
2017-08-12T04:48:31.182Z,14.38
2017-08-12T04:49:31.190Z,14.41
2017-08-12T04:50:31.182Z,14.48
2017-08-12T04:51:31.183Z,14.49
2017-08-12T04:52:31.189Z,14.53
2017-08-12T04:53:31.187Z,14.57
2017-08-12T04:54:31.192Z,14.58
2017-08-12T04:55:31.196Z,14.67
2017-08-12T04:56:31.204Z,14.63
2017-08-12T04:57:31.202Z,14.56
2017-08-12T04:58:31.203Z,14.53
2017-08-12T04:59:31.205Z,14.50
2017-08-12T05:00:31.211Z,14.42
2017-08-12T05:01:31.214Z,14.38
2017-08-12T05:02:31.222Z,14.33
2017-08-12T05:03:31.218Z,14.30
2017-08-12T05:04:31.224Z,14.24
2017-08-12T05:05:31.222Z,14.15
2017-08-12T05:06:31.228Z,14.12
2017-08-12T05:07:31.228Z,14.08
2017-08-12T05:08:31.235Z,14.04
2017-08-12T05:09:31.235Z,14.02
2017-08-12T05:10:31.242Z,13.98
2017-08-12T05:11:31.248Z,13.94
2017-08-12T05:12:31.249Z,13.93
2017-08-12T05:13:31.251Z,13.90
2017-08-12T05:14:31.253Z,13.88
2017-08-12T05:15:31.263Z,13.81
2017-08-12T05:16:31.268Z,13.80
2017-08-12T05:17:31.259Z,13.78
2017-08-12T05:18:31.265Z,13.74
2017-08-12T05:19:31.278Z,13.73
2017-08-12T05:20:31.270Z,13.70
2017-08-12T05:21:31.278Z,13.70
2017-08-12T05:22:31.277Z,13.67
2017-08-12T05:23:31.278Z,13.65
2017-08-12T05:24:31.282Z,13.63
2017-08-12T05:25:31.283Z,13.66
2017-08-12T05:26:31.285Z,13.68
2017-08-12T05:27:31.288Z,13.72
2017-08-12T05:28:31.289Z,13.71
2017-08-12T05:29:31.293Z,13.71
2017-08-12T05:30:31.299Z,13.74
2017-08-12T05:31:31.301Z,13.72
2017-08-12T05:32:31.303Z,13.71
2017-08-12T05:33:31.307Z,13.75
2017-08-12T05:34:31.322Z,13.78
2017-08-12T05:35:31.316Z,13.83
2017-08-12T05:36:31.325Z,13.92
2017-08-12T05:37:31.317Z,14.03
2017-08-12T05:38:31.323Z,14.08
2017-08-12T05:39:31.325Z,14.15
2017-08-12T05:40:31.326Z,14.24
2017-08-12T05:41:31.336Z,14.32
2017-08-12T05:42:31.340Z,14.38
2017-08-12T05:43:31.337Z,14.50
2017-08-12T05:44:31.340Z,14.61
2017-08-12T05:45:31.346Z,14.78
2017-08-12T05:46:31.346Z,14.91
2017-08-12T05:47:31.351Z,15.01
2017-08-12T05:48:31.351Z,15.07
2017-08-12T05:49:31.355Z,15.15
2017-08-12T05:50:31.356Z,15.21
2017-08-12T05:51:31.355Z,15.30
2017-08-12T05:52:31.363Z,15.44
2017-08-12T05:53:31.364Z,15.59
2017-08-12T05:54:31.365Z,15.68
2017-08-12T05:55:31.370Z,15.79
2017-08-12T05:56:31.373Z,15.94
2017-08-12T05:57:31.377Z,16.09
2017-08-12T05:58:31.379Z,16.21
2017-08-12T05:59:31.385Z,16.33
2017-08-12T06:00:31.392Z,16.39
2017-08-12T06:01:31.387Z,16.43
2017-08-12T06:02:31.393Z,16.44
2017-08-12T06:03:31.393Z,16.43
2017-08-12T06:04:31.399Z,16.36
2017-08-12T06:05:31.400Z,16.27
2017-08-12T06:06:31.402Z,16.20
2017-08-12T06:07:31.414Z,16.16
2017-08-12T06:08:31.432Z,16.10
2017-08-12T06:09:31.415Z,15.99
2017-08-12T06:10:31.421Z,15.89
2017-08-12T06:11:31.419Z,15.80
2017-08-12T06:12:31.421Z,15.71
2017-08-12T06:13:31.430Z,15.60
2017-08-12T06:14:31.440Z,15.51
2017-08-12T06:15:31.441Z,15.44
2017-08-12T06:16:31.432Z,15.37
2017-08-12T06:17:31.438Z,15.30
2017-08-12T06:18:31.441Z,15.27
2017-08-12T06:19:31.439Z,15.24
2017-08-12T06:20:31.446Z,15.20
2017-08-12T06:21:31.448Z,15.18
2017-08-12T06:22:31.452Z,15.16
2017-08-12T06:23:31.452Z,15.12
2017-08-12T06:24:31.459Z,15.11
2017-08-12T06:25:31.457Z,15.08
2017-08-12T06:26:31.463Z,15.04
2017-08-12T06:27:31.465Z,15.00
2017-08-12T06:28:31.468Z,14.98
2017-08-12T06:29:31.474Z,14.94
2017-08-12T06:30:31.475Z,14.91
2017-08-12T06:31:31.482Z,14.90
2017-08-12T06:32:31.478Z,14.91
2017-08-12T06:33:31.484Z,14.86
2017-08-12T06:34:31.487Z,14.88
2017-08-12T06:35:31.498Z,14.90
2017-08-12T06:36:31.583Z,14.89
2017-08-12T06:37:31.494Z,14.91
2017-08-12T06:38:31.529Z,14.91
2017-08-12T06:39:31.516Z,14.93
2017-08-12T06:40:38.642Z,14.95
2017-08-12T06:41:31.504Z,14.98
2017-08-12T06:42:31.512Z,14.99
2017-08-12T06:43:31.520Z,14.99
2017-08-12T06:44:31.664Z,15.02
2017-08-12T06:45:31.515Z,14.99
2017-08-12T06:46:31.521Z,14.98
2017-08-12T06:47:31.524Z,14.97
2017-08-12T06:48:31.527Z,15.00
2017-08-12T06:49:31.527Z,14.99
2017-08-12T06:50:31.530Z,15.00
2017-08-12T06:51:31.532Z,15.01
2017-08-12T06:52:31.535Z,15.01
2017-08-12T06:53:31.545Z,15.05
2017-08-12T06:54:31.543Z,15.07
2017-08-12T06:55:31.542Z,15.08
2017-08-12T06:56:31.554Z,15.08
2017-08-12T06:57:31.549Z,15.12
2017-08-12T06:58:31.565Z,15.14
2017-08-12T06:59:31.560Z,15.13
2017-08-12T07:00:31.566Z,15.14
2017-08-12T07:01:31.591Z,15.15
2017-08-12T07:02:31.567Z,15.18
2017-08-12T07:03:31.568Z,15.19
2017-08-12T07:04:31.571Z,15.18
2017-08-12T07:05:31.577Z,15.18
2017-08-12T07:06:31.627Z,15.17
2017-08-12T07:07:31.584Z,15.20
2017-08-12T07:08:31.582Z,15.20
2017-08-12T07:09:31.585Z,15.22
2017-08-12T07:10:31.589Z,15.16
2017-08-12T07:11:31.590Z,15.16
2017-08-12T07:12:31.597Z,15.15
2017-08-12T07:13:31.600Z,15.17
2017-08-12T07:14:31.598Z,15.22
2017-08-12T07:15:31.607Z,15.25
2017-08-12T07:16:31.611Z,15.28
2017-08-12T07:17:31.609Z,15.29
2017-08-12T07:18:31.610Z,15.33
2017-08-12T07:19:31.619Z,15.33
2017-08-12T07:20:31.626Z,15.36
2017-08-12T07:21:31.628Z,15.34
2017-08-12T07:22:31.620Z,15.33
2017-08-12T07:23:31.625Z,15.30
2017-08-12T07:24:31.630Z,15.27
2017-08-12T07:25:31.640Z,15.27
2017-08-12T07:26:31.631Z,15.29
2017-08-12T07:27:31.638Z,15.30
2017-08-12T07:28:31.640Z,15.29
2017-08-12T07:29:31.653Z,15.32
2017-08-12T07:30:31.691Z,15.27
2017-08-12T07:31:31.664Z,15.29
2017-08-12T07:32:31.653Z,15.30
2017-08-12T07:33:31.660Z,15.32
2017-08-12T07:34:31.656Z,15.35
2017-08-12T07:35:31.661Z,15.37
2017-08-12T07:36:31.666Z,15.33
2017-08-12T07:37:31.670Z,15.22
2017-08-12T07:38:31.676Z,15.15
2017-08-12T07:39:31.675Z,15.13
2017-08-12T07:40:31.674Z,15.12
2017-08-12T07:41:31.679Z,15.11
2017-08-12T07:42:31.681Z,15.14
2017-08-12T07:43:31.680Z,15.16
2017-08-12T07:44:31.687Z,15.19
2017-08-12T07:45:31.685Z,15.20
2017-08-12T07:46:31.696Z,15.25
2017-08-12T07:47:31.693Z,15.29
2017-08-12T07:48:31.698Z,15.36
2017-08-12T07:49:31.698Z,15.40
2017-08-12T07:50:31.703Z,15.44
2017-08-12T07:51:31.705Z,15.48
2017-08-12T07:52:31.708Z,15.46
2017-08-12T07:53:31.715Z,15.50
2017-08-12T07:54:31.712Z,15.53
2017-08-12T07:55:31.746Z,15.57
2017-08-12T07:56:31.723Z,15.62
2017-08-12T07:57:31.722Z,15.65
2017-08-12T07:58:31.737Z,15.70
2017-08-12T07:59:31.732Z,15.73
2017-08-12T08:00:31.729Z,15.70
2017-08-12T08:01:31.733Z,15.67
2017-08-12T08:02:31.740Z,15.68
2017-08-12T08:03:31.738Z,15.71
2017-08-12T08:04:31.745Z,15.73
2017-08-12T08:05:31.742Z,15.69
2017-08-12T08:06:31.744Z,15.63
2017-08-12T08:07:31.749Z,15.60
2017-08-12T08:08:31.752Z,15.62
2017-08-12T08:09:31.755Z,15.57
2017-08-12T08:10:31.756Z,15.58
2017-08-12T08:11:31.760Z,15.60
2017-08-12T08:12:31.764Z,15.64
2017-08-12T08:13:31.768Z,15.65
2017-08-12T08:14:31.769Z,15.67
2017-08-12T08:15:31.776Z,15.70
2017-08-12T08:16:31.782Z,15.72
2017-08-12T08:17:31.778Z,15.68
2017-08-12T08:18:31.779Z,15.65
2017-08-12T08:19:31.782Z,15.64
2017-08-12T08:20:31.788Z,15.61
2017-08-12T08:21:31.788Z,15.63
2017-08-12T08:22:31.794Z,15.64
2017-08-12T08:23:31.805Z,15.66
2017-08-12T08:24:31.798Z,15.70
2017-08-12T08:25:31.808Z,15.75
2017-08-12T08:26:31.812Z,15.82
2017-08-12T08:27:31.809Z,15.88
2017-08-12T08:28:31.810Z,15.95
2017-08-12T08:29:31.815Z,16.01
2017-08-12T08:30:31.817Z,16.06
2017-08-12T08:31:31.826Z,16.14
2017-08-12T08:32:31.823Z,16.21
2017-08-12T08:33:31.827Z,16.35
2017-08-12T08:34:31.827Z,16.50
2017-08-12T08:35:31.830Z,16.66
2017-08-12T08:36:31.832Z,16.80
2017-08-12T08:37:31.836Z,16.87
2017-08-12T08:38:31.843Z,16.88
2017-08-12T08:39:31.843Z,16.85
2017-08-12T08:40:31.847Z,16.87
2017-08-12T08:41:31.844Z,16.86
2017-08-12T08:42:31.910Z,16.89
2017-08-12T08:43:31.858Z,16.93
2017-08-12T08:44:31.868Z,16.94
2017-08-12T08:45:31.862Z,17.01
2017-08-12T08:46:31.867Z,17.10
2017-08-12T08:47:31.881Z,17.17
2017-08-12T08:48:31.871Z,17.17
2017-08-12T08:49:31.880Z,17.21
2017-08-12T08:50:31.892Z,17.33
2017-08-12T08:51:31.922Z,17.43
2017-08-12T08:52:31.887Z,17.53
2017-08-12T08:53:31.897Z,17.60
2017-08-12T08:54:31.882Z,17.73
2017-08-12T08:55:31.961Z,17.87
2017-08-12T08:56:31.948Z,17.99
2017-08-12T08:57:31.893Z,18.12
2017-08-12T08:58:31.898Z,18.23
2017-08-12T08:59:31.899Z,18.27
2017-08-12T09:00:31.965Z,18.24
2017-08-12T09:01:31.933Z,18.12
2017-08-12T09:02:31.976Z,18.13
2017-08-12T09:03:31.998Z,18.17
2017-08-12T09:04:31.927Z,18.19
2017-08-12T09:05:31.922Z,18.26
2017-08-12T09:06:31.919Z,18.30
2017-08-12T09:07:31.929Z,18.32
2017-08-12T09:08:31.931Z,18.36
2017-08-12T09:09:31.928Z,18.38
2017-08-12T09:10:31.931Z,18.29
2017-08-12T09:11:31.973Z,18.38
2017-08-12T09:12:31.941Z,18.56
2017-08-12T09:13:32.028Z,18.70
2017-08-12T09:14:31.943Z,19.03
2017-08-12T09:15:31.953Z,19.28
2017-08-12T09:16:32.102Z,19.58
2017-08-12T09:17:32.131Z,19.90
2017-08-12T09:18:31.970Z,20.17
2017-08-12T09:19:32.007Z,20.26
2017-08-12T09:20:31.960Z,20.31
2017-08-12T09:21:31.966Z,20.35
2017-08-12T09:22:32.015Z,20.34
2017-08-12T09:23:32.010Z,20.33
2017-08-12T09:24:31.997Z,20.26
2017-08-12T09:25:32.066Z,20.06
2017-08-12T09:26:31.977Z,19.81
2017-08-12T09:27:32.077Z,19.57
2017-08-12T09:28:32.045Z,19.46
2017-08-12T09:29:32.033Z,19.43
2017-08-12T09:30:34.466Z,19.46
2017-08-12T09:33:07.159Z,19.77
2017-08-12T09:33:08.522Z,20.44
2017-08-12T09:33:31.998Z,21.23
2017-08-12T09:37:03.926Z,21.67
2017-08-12T09:37:05.398Z,21.88
2017-08-12T09:37:06.009Z,21.94
2017-08-12T09:37:32.011Z,21.77
2017-08-12T09:38:32.086Z,21.61
2017-08-12T09:39:32.018Z,21.12
2017-08-12T09:40:32.094Z,20.56
2017-08-12T09:41:32.147Z,19.97
2017-08-12T09:42:32.031Z,19.62
2017-08-12T09:43:32.029Z,19.08
2017-08-12T09:44:32.034Z,18.91
2017-08-12T09:45:32.077Z,18.73
2017-08-12T09:46:32.099Z,18.66
2017-08-12T09:47:32.040Z,18.63
2017-08-12T09:48:32.060Z,18.62
2017-08-12T09:49:32.046Z,18.71
2017-08-12T09:50:32.049Z,19.12
2017-08-12T09:51:32.072Z,19.55
2017-08-12T09:52:32.058Z,19.95
2017-08-12T09:53:32.072Z,20.32
2017-08-12T09:54:32.062Z,21.17
2017-08-12T09:55:32.062Z,21.96
2017-08-12T09:56:32.116Z,22.25
2017-08-12T09:57:32.069Z,22.16
2017-08-12T09:58:32.113Z,21.85
2017-08-12T09:59:32.101Z,21.47
2017-08-12T10:00:32.134Z,21.14
2017-08-12T10:01:32.080Z,20.86
2017-08-12T10:02:32.156Z,20.58
2017-08-12T10:03:32.086Z,20.43
2017-08-12T10:04:32.151Z,20.23
2017-08-12T10:05:32.112Z,20.11
2017-08-12T10:06:32.093Z,20.02
2017-08-12T10:07:32.144Z,19.90
2017-08-12T10:08:32.113Z,19.81
2017-08-12T10:09:32.101Z,19.70
2017-08-12T10:10:32.120Z,19.54
2017-08-12T10:11:32.161Z,19.27
2017-08-12T10:12:32.124Z,19.05
2017-08-12T10:13:32.158Z,18.91
2017-08-12T10:14:32.114Z,18.83
2017-08-12T10:15:32.143Z,18.54
2017-08-12T10:16:32.125Z,18.36
2017-08-12T10:17:32.132Z,18.21
2017-08-12T10:18:32.132Z,18.08
2017-08-12T10:19:32.131Z,18.01
2017-08-12T10:20:32.136Z,17.91
2017-08-12T10:21:32.138Z,17.77
2017-08-12T10:22:32.161Z,17.68
2017-08-12T10:23:32.141Z,17.67
2017-08-12T10:24:32.145Z,17.60
2017-08-12T10:25:32.181Z,17.61
2017-08-12T10:26:32.160Z,17.59
2017-08-12T10:27:32.189Z,17.59
2017-08-12T10:28:32.160Z,17.60
2017-08-12T10:29:32.160Z,17.57
2017-08-12T10:30:32.169Z,17.55
2017-08-12T10:31:32.164Z,17.53
2017-08-12T10:32:32.172Z,17.51
2017-08-12T10:33:32.170Z,17.54
2017-08-12T10:34:32.175Z,17.54
2017-08-12T10:35:32.176Z,17.51
2017-08-12T10:36:32.181Z,17.49
2017-08-12T10:37:32.183Z,17.50
2017-08-12T10:38:32.186Z,17.48
2017-08-12T10:39:32.187Z,17.49
2017-08-12T10:40:32.199Z,17.52
2017-08-12T10:41:32.197Z,17.53
2017-08-12T10:42:32.204Z,17.54
2017-08-12T10:43:32.199Z,17.51
2017-08-12T10:44:32.202Z,17.51
2017-08-12T10:45:32.211Z,17.50
2017-08-12T10:46:32.205Z,17.50
2017-08-12T10:47:32.211Z,17.52
2017-08-12T10:48:32.211Z,17.54
2017-08-12T10:49:32.244Z,17.53
2017-08-12T10:50:32.221Z,17.58
2017-08-12T10:51:32.228Z,17.57
2017-08-12T10:52:32.292Z,17.58
2017-08-12T10:53:32.224Z,17.65
2017-08-12T10:54:32.231Z,17.72
2017-08-12T10:55:32.230Z,17.81
2017-08-12T10:56:32.233Z,17.92
2017-08-12T10:57:32.242Z,17.98
2017-08-12T10:58:32.239Z,18.09
2017-08-12T10:59:32.249Z,18.22
2017-08-12T11:00:32.510Z,18.36
2017-08-12T11:01:32.249Z,18.57
2017-08-12T11:02:32.257Z,18.76
2017-08-12T11:03:32.260Z,18.90
2017-08-12T11:04:32.259Z,19.01
2017-08-12T11:05:32.262Z,19.00
2017-08-12T11:06:32.266Z,18.87
2017-08-12T11:07:32.265Z,18.71
2017-08-12T11:08:32.276Z,18.61
2017-08-12T11:09:32.289Z,18.62
2017-08-12T11:10:32.275Z,18.67
2017-08-12T11:11:32.288Z,18.70
2017-08-12T11:12:32.331Z,18.78
2017-08-12T11:13:32.284Z,18.88
2017-08-12T11:14:32.368Z,19.07
2017-08-12T11:15:32.294Z,19.28
2017-08-12T11:16:32.291Z,19.42
2017-08-12T11:17:32.293Z,19.57
2017-08-12T11:18:32.299Z,19.59
2017-08-12T11:19:32.301Z,19.80
2017-08-12T11:20:32.303Z,19.95
2017-08-12T11:21:32.307Z,20.13
2017-08-12T11:22:32.306Z,20.32
2017-08-12T11:23:32.355Z,20.49
2017-08-12T11:24:32.319Z,20.78
2017-08-12T11:25:32.320Z,20.87
2017-08-12T11:26:32.318Z,20.82
2017-08-12T11:27:32.324Z,20.97
2017-08-12T11:28:32.329Z,20.95
2017-08-12T11:29:32.334Z,21.15
2017-08-12T11:30:32.331Z,21.37
2017-08-12T11:31:32.338Z,21.35
2017-08-12T11:32:32.340Z,21.30
2017-08-12T11:33:32.345Z,21.01
2017-08-12T11:34:32.349Z,20.95
2017-08-12T11:35:32.350Z,20.88
2017-08-12T11:36:32.350Z,20.52
2017-08-12T11:37:32.354Z,20.26
2017-08-12T11:38:32.446Z,20.10
2017-08-12T11:39:32.360Z,19.99
2017-08-12T11:40:32.361Z,19.77
2017-08-12T11:41:32.368Z,19.69
2017-08-12T11:42:32.372Z,19.75
2017-08-12T11:43:32.387Z,19.82
2017-08-12T11:44:32.376Z,19.99
2017-08-12T11:45:32.385Z,20.19
2017-08-12T11:46:32.375Z,20.39
2017-08-12T11:47:32.380Z,20.45
2017-08-12T11:48:32.380Z,20.52
2017-08-12T11:49:32.392Z,20.67
2017-08-12T11:50:32.392Z,20.80
2017-08-12T11:51:32.392Z,20.78
2017-08-12T11:52:32.402Z,20.87
2017-08-12T11:53:32.419Z,21.45
2017-08-12T11:54:32.407Z,21.69
2017-08-12T11:55:32.405Z,21.89
2017-08-12T11:56:32.410Z,22.09
2017-08-12T11:57:32.409Z,21.84
2017-08-12T11:58:32.416Z,22.12
2017-08-12T11:59:32.423Z,22.29
2017-08-12T12:00:32.425Z,22.56
2017-08-12T12:01:32.428Z,22.64
2017-08-12T12:02:32.425Z,22.70
2017-08-12T12:03:32.427Z,22.63
2017-08-12T12:04:32.432Z,22.79
2017-08-12T12:05:32.437Z,22.88
2017-08-12T12:06:32.448Z,23.16
2017-08-12T12:07:32.439Z,23.22
2017-08-12T12:08:32.448Z,23.31
2017-08-12T12:09:32.511Z,23.38
2017-08-12T12:10:32.447Z,23.42
2017-08-12T12:11:32.537Z,23.26
2017-08-12T12:12:32.449Z,23.08
2017-08-12T12:13:32.454Z,22.99
2017-08-12T12:14:32.501Z,22.22
2017-08-12T12:15:32.465Z,21.71
2017-08-12T12:16:32.463Z,21.05
2017-08-12T12:17:32.470Z,20.69
2017-08-12T12:18:32.500Z,20.47
2017-08-12T12:19:32.474Z,20.14
2017-08-12T12:20:32.480Z,19.85
2017-08-12T12:21:32.486Z,19.71
2017-08-12T12:22:32.481Z,19.83
2017-08-12T12:23:32.486Z,19.89
2017-08-12T12:24:32.486Z,19.75
2017-08-12T12:25:32.489Z,19.87
2017-08-12T12:26:32.494Z,19.78
2017-08-12T12:27:32.509Z,19.71
2017-08-12T12:28:32.496Z,19.75
2017-08-12T12:29:32.502Z,19.86
2017-08-12T12:30:32.504Z,19.89
2017-08-12T12:31:32.505Z,20.07
2017-08-12T12:32:32.508Z,20.31
2017-08-12T12:33:32.506Z,20.65
2017-08-12T12:34:32.522Z,20.78
2017-08-12T12:35:32.517Z,20.90
2017-08-12T12:36:32.559Z,20.99
2017-08-12T12:37:32.522Z,21.07
2017-08-12T12:38:32.528Z,20.95
2017-08-12T12:39:32.528Z,20.72
2017-08-12T12:40:32.532Z,20.53
2017-08-12T12:41:32.536Z,20.28
2017-08-12T12:42:32.537Z,20.25
2017-08-12T12:43:32.545Z,20.21
2017-08-12T12:44:32.543Z,20.26
2017-08-12T12:45:32.593Z,20.28
2017-08-12T12:46:32.558Z,20.22
2017-08-12T12:47:32.547Z,20.18
2017-08-12T12:48:32.553Z,19.97
2017-08-12T12:49:32.554Z,19.85
2017-08-12T12:50:32.581Z,19.86
2017-08-12T12:51:32.563Z,19.89